createdAt,value
2018-05-14T00:00:34.520Z,0.00
2018-05-14T00:01:34.728Z,0.00
2018-05-14T00:02:34.953Z,0.00
2018-05-14T00:03:35.153Z,0.00
2018-05-14T00:04:35.365Z,0.00
2018-05-14T00:05:35.576Z,0.00
2018-05-14T00:06:35.800Z,0.00
2018-05-14T00:07:36.022Z,0.00
2018-05-14T00:08:36.240Z,0.00
2018-05-14T00:09:36.456Z,0.00
2018-05-14T00:10:36.669Z,0.00
2018-05-14T00:11:36.885Z,0.00
2018-05-14T00:12:37.098Z,0.00
2018-05-14T00:13:37.329Z,0.00
2018-05-14T00:14:37.532Z,0.00
2018-05-14T00:15:37.751Z,0.00
2018-05-14T00:16:37.956Z,0.00
2018-05-14T00:17:38.164Z,0.00
2018-05-14T00:18:39.883Z,0.00
2018-05-14T00:19:38.590Z,0.00
2018-05-14T00:20:38.808Z,0.00
2018-05-14T00:21:39.024Z,0.00
2018-05-14T00:22:39.230Z,0.00
2018-05-14T00:23:43.381Z,0.00
2018-05-14T00:24:39.596Z,0.00
2018-05-14T00:25:39.800Z,0.00
2018-05-14T00:26:40.027Z,0.00
2018-05-14T00:27:40.244Z,0.00
2018-05-14T00:28:40.447Z,0.00
2018-05-14T00:29:40.663Z,0.00
2018-05-14T00:30:40.871Z,0.00
2018-05-14T00:31:41.095Z,0.00
2018-05-14T00:32:41.308Z,0.00
2018-05-14T00:33:41.506Z,0.00
2018-05-14T00:34:43.386Z,0.00
2018-05-14T00:35:41.843Z,0.00
2018-05-14T00:36:42.055Z,0.00
2018-05-14T00:37:42.279Z,0.00
2018-05-14T00:38:42.489Z,0.00
2018-05-14T00:39:42.706Z,0.00
2018-05-14T00:40:42.925Z,0.00
2018-05-14T00:41:44.887Z,0.00
2018-05-14T00:42:43.359Z,0.00
2018-05-14T00:43:43.571Z,0.00
2018-05-14T00:44:45.399Z,0.00
2018-05-14T00:45:43.984Z,0.00
2018-05-14T00:46:44.203Z,0.00
2018-05-14T00:47:44.411Z,0.00
2018-05-14T00:48:44.630Z,0.00
2018-05-14T00:49:44.846Z,0.00
2018-05-14T00:50:45.052Z,0.00
2018-05-14T00:51:46.886Z,0.00
2018-05-14T00:52:45.466Z,0.00
2018-05-14T00:53:45.680Z,0.00
2018-05-14T00:54:45.898Z,0.00
2018-05-14T00:55:46.107Z,0.00
2018-05-14T00:56:46.324Z,0.00
2018-05-14T00:57:46.547Z,0.00
2018-05-14T00:58:46.758Z,0.00
2018-05-14T00:59:46.972Z,0.00
2018-05-14T01:00:47.180Z,0.00
2018-05-14T01:01:47.395Z,0.00
2018-05-14T01:02:47.612Z,0.00
2018-05-14T01:03:47.830Z,0.00
2018-05-14T01:04:48.046Z,0.00
2018-05-14T01:05:48.255Z,0.00
2018-05-14T01:06:48.467Z,0.00
2018-05-14T01:07:48.683Z,0.00
2018-05-14T01:08:48.898Z,0.00
2018-05-14T01:09:49.103Z,0.00
2018-05-14T01:10:49.321Z,0.00
2018-05-14T01:11:49.526Z,0.00
2018-05-14T01:12:49.741Z,0.00
2018-05-14T01:13:49.958Z,0.00
2018-05-14T01:14:50.165Z,0.00
2018-05-14T01:15:50.381Z,0.00
2018-05-14T01:16:50.599Z,0.00
2018-05-14T01:17:50.808Z,0.00
2018-05-14T01:18:51.041Z,0.00
2018-05-14T01:19:51.252Z,0.00
2018-05-14T01:20:51.457Z,0.00
2018-05-14T01:21:51.677Z,0.00
2018-05-14T01:22:51.882Z,0.00
2018-05-14T01:23:52.098Z,0.00
2018-05-14T01:24:52.305Z,0.00
2018-05-14T01:25:52.521Z,0.00
2018-05-14T01:26:54.390Z,0.00
2018-05-14T01:27:52.851Z,0.00
2018-05-14T01:28:53.065Z,0.00
2018-05-14T01:29:53.286Z,0.00
2018-05-14T01:30:55.385Z,0.00
2018-05-14T01:31:53.735Z,0.00
2018-05-14T01:32:53.949Z,0.00
2018-05-14T01:33:57.893Z,0.00
2018-05-14T01:34:54.353Z,0.00
2018-05-14T01:35:56.389Z,0.00
2018-05-14T01:36:54.747Z,0.00
2018-05-14T01:37:54.963Z,0.00
2018-05-14T01:38:55.177Z,0.00
2018-05-14T01:39:55.403Z,0.00
2018-05-14T01:40:55.606Z,0.00
2018-05-14T01:41:57.387Z,0.00
2018-05-14T01:42:55.970Z,0.00
2018-05-14T01:43:56.190Z,0.00
2018-05-14T01:44:56.391Z,0.00
2018-05-14T01:45:58.386Z,0.00
2018-05-14T01:46:56.726Z,0.00
2018-05-14T01:47:56.944Z,0.00
2018-05-14T01:48:57.159Z,0.00
2018-05-14T01:49:57.368Z,0.00
2018-05-14T01:50:59.387Z,0.00
2018-05-14T01:51:57.733Z,0.00
2018-05-14T01:52:57.945Z,0.00
2018-05-14T01:53:58.162Z,0.00
2018-05-14T01:54:58.380Z,0.00
2018-05-14T01:55:58.586Z,0.00
2018-05-14T01:56:58.807Z,0.00
2018-05-14T01:57:59.019Z,0.00
2018-05-14T01:58:59.226Z,0.00
2018-05-14T01:59:59.434Z,0.00
2018-05-14T02:00:59.643Z,0.00
2018-05-14T02:01:59.855Z,0.00
2018-05-14T02:03:00.075Z,0.00
2018-05-14T02:04:00.278Z,0.00
2018-05-14T02:05:02.385Z,0.00
2018-05-14T02:06:00.729Z,0.00
2018-05-14T02:07:00.937Z,0.00
2018-05-14T02:08:01.156Z,0.00
2018-05-14T02:09:01.373Z,0.00
2018-05-14T02:10:01.579Z,0.00
2018-05-14T02:11:01.805Z,0.00
2018-05-14T02:12:02.042Z,0.00
2018-05-14T02:13:02.254Z,0.00
2018-05-14T02:14:02.517Z,0.00
2018-05-14T02:15:02.674Z,0.00
2018-05-14T02:16:02.900Z,0.00
2018-05-14T02:17:03.097Z,0.00
2018-05-14T02:18:03.313Z,0.00
2018-05-14T02:19:03.531Z,0.00
2018-05-14T02:20:03.738Z,0.00
2018-05-14T02:21:03.959Z,0.00
2018-05-14T02:22:04.178Z,0.00
2018-05-14T02:23:04.388Z,0.00
2018-05-14T02:24:04.606Z,0.00
2018-05-14T02:25:04.836Z,0.00
2018-05-14T02:26:05.044Z,0.00
2018-05-14T02:27:05.261Z,0.00
2018-05-14T02:28:05.481Z,0.00
2018-05-14T02:29:05.691Z,0.00
2018-05-14T02:30:05.920Z,0.00
2018-05-14T02:31:06.128Z,0.00
2018-05-14T02:32:06.342Z,0.00
2018-05-14T02:33:06.567Z,0.00
2018-05-14T02:34:06.766Z,0.00
2018-05-14T02:35:06.976Z,0.00
2018-05-14T02:36:07.188Z,0.00
2018-05-14T02:37:07.398Z,0.00
2018-05-14T02:38:07.612Z,0.00
2018-05-14T02:39:07.821Z,0.00
2018-05-14T02:40:08.051Z,0.00
2018-05-14T02:41:08.260Z,0.00
2018-05-14T02:42:10.045Z,0.00
2018-05-14T02:43:08.643Z,0.00
2018-05-14T02:44:08.851Z,0.00
2018-05-14T02:45:13.630Z,0.00
2018-05-14T02:46:10.893Z,0.00
2018-05-14T02:47:09.354Z,0.00
2018-05-14T02:48:09.556Z,0.00
2018-05-14T02:49:09.773Z,0.00
2018-05-14T02:50:09.981Z,0.00
2018-05-14T02:51:10.198Z,0.00
2018-05-14T02:52:10.416Z,0.00
2018-05-14T02:53:12.390Z,0.00
2018-05-14T02:54:10.856Z,0.00
2018-05-14T02:55:11.081Z,0.00
2018-05-14T02:56:11.293Z,4.00
2018-05-14T02:57:11.516Z,4.00
2018-05-14T02:58:11.747Z,0.00
2018-05-14T02:59:11.941Z,0.00
2018-05-14T03:00:12.158Z,4.00
2018-05-14T03:01:12.381Z,0.00
2018-05-14T03:02:12.583Z,4.00
2018-05-14T03:03:12.800Z,4.00
2018-05-14T03:04:14.899Z,4.00
2018-05-14T03:05:14.892Z,4.00
2018-05-14T03:06:13.353Z,8.00
2018-05-14T03:07:17.964Z,8.00
2018-05-14T03:08:15.396Z,8.00
2018-05-14T03:09:13.844Z,12.00
2018-05-14T03:10:14.062Z,12.00
2018-05-14T03:11:14.278Z,12.00
2018-05-14T03:12:14.489Z,16.00
2018-05-14T03:13:14.706Z,20.00
2018-05-14T03:14:14.916Z,20.00
2018-05-14T03:15:16.678Z,28.00
2018-05-14T03:16:15.275Z,28.00
2018-05-14T03:17:15.477Z,32.00
2018-05-14T03:18:15.690Z,36.00
2018-05-14T03:19:15.911Z,44.00
2018-05-14T03:20:16.121Z,44.00
2018-05-14T03:21:18.097Z,52.00
2018-05-14T03:22:16.573Z,60.00
2018-05-14T03:23:16.779Z,68.00
2018-05-14T03:24:16.989Z,76.00
2018-05-14T03:25:17.207Z,84.00
2018-05-14T03:26:17.416Z,96.00
2018-05-14T03:27:17.693Z,104.00
2018-05-14T03:28:17.861Z,116.00
2018-05-14T03:29:18.071Z,132.00
2018-05-14T03:30:21.891Z,144.00
2018-05-14T03:31:18.481Z,156.00
2018-05-14T03:32:18.693Z,176.00
2018-05-14T03:33:18.898Z,192.00
2018-05-14T03:34:19.111Z,208.00
2018-05-14T03:35:19.329Z,224.00
2018-05-14T03:36:19.552Z,244.00
2018-05-14T03:37:19.756Z,264.00
2018-05-14T03:38:19.976Z,284.00
2018-05-14T03:39:20.191Z,308.00
2018-05-14T03:40:20.398Z,336.00
2018-05-14T03:41:20.610Z,368.00
2018-05-14T03:42:20.844Z,400.00
2018-05-14T03:43:21.063Z,436.00
2018-05-14T03:44:21.280Z,468.00
2018-05-14T03:45:23.395Z,504.00
2018-05-14T03:46:21.617Z,544.00
2018-05-14T03:47:21.841Z,584.00
2018-05-14T03:48:22.049Z,624.00
2018-05-14T03:49:22.266Z,664.00
2018-05-14T03:50:22.480Z,708.00
2018-05-14T03:51:22.692Z,752.00
2018-05-14T03:52:22.928Z,792.00
2018-05-14T03:53:23.138Z,836.00
2018-05-14T03:54:23.333Z,880.00
2018-05-14T03:55:23.556Z,924.00
2018-05-14T03:56:23.793Z,968.00
2018-05-14T03:57:23.979Z,1016.00
2018-05-14T03:58:24.189Z,1068.00
2018-05-14T03:59:24.452Z,1124.00
2018-05-14T04:00:24.636Z,1188.00
2018-05-14T04:01:26.394Z,1252.00
2018-05-14T04:02:25.087Z,1328.00
2018-05-14T04:03:25.207Z,1396.00
2018-05-14T04:04:25.426Z,1468.00
2018-05-14T04:05:25.632Z,1536.00
2018-05-14T04:06:25.855Z,1616.00
2018-05-14T04:07:26.066Z,1696.00
2018-05-14T04:08:26.329Z,1776.00
2018-05-14T04:09:28.395Z,1852.00
2018-05-14T04:10:26.731Z,1928.00
2018-05-14T04:11:26.945Z,2000.00
2018-05-14T04:12:27.152Z,2064.00
2018-05-14T04:13:27.362Z,2136.00
2018-05-14T04:14:27.585Z,2196.00
2018-05-14T04:15:29.394Z,2252.00
2018-05-14T04:16:28.020Z,2300.00
2018-05-14T04:17:28.205Z,2344.00
2018-05-14T04:18:28.420Z,2392.00
2018-05-14T04:19:28.635Z,2440.00
2018-05-14T04:20:28.856Z,2480.00
2018-05-14T04:21:29.069Z,2516.00
2018-05-14T04:22:29.279Z,2552.00
2018-05-14T04:23:29.526Z,2588.00
2018-05-14T04:24:32.398Z,2628.00
2018-05-14T04:25:29.849Z,2660.00
2018-05-14T04:26:30.059Z,2696.00
2018-05-14T04:27:33.898Z,2732.00
2018-05-14T04:28:30.473Z,2772.00
2018-05-14T04:29:30.680Z,2800.00
2018-05-14T04:30:30.906Z,2848.00
2018-05-14T04:31:31.116Z,2916.00
2018-05-14T04:32:31.338Z,2980.00
2018-05-14T04:33:31.586Z,3032.00
2018-05-14T04:34:31.784Z,3068.00
2018-05-14T04:35:31.996Z,3092.00
2018-05-14T04:36:32.219Z,3124.00
2018-05-14T04:37:34.404Z,3160.00
2018-05-14T04:38:34.394Z,3208.00
2018-05-14T04:39:34.396Z,3252.00
2018-05-14T04:40:32.977Z,3296.00
2018-05-14T04:41:34.896Z,3352.00
2018-05-14T04:42:33.378Z,3412.00
2018-05-14T04:43:33.585Z,3476.00
2018-05-14T04:44:35.394Z,3536.00
2018-05-14T04:45:33.981Z,3592.00
2018-05-14T04:46:34.195Z,3660.00
2018-05-14T04:47:34.419Z,3720.00
2018-05-14T04:48:34.624Z,3772.00
2018-05-14T04:49:34.848Z,3800.00
2018-05-14T04:50:35.066Z,3808.00
2018-05-14T04:51:35.288Z,3856.00
2018-05-14T04:52:35.503Z,3892.00
2018-05-14T04:53:37.402Z,3896.00
2018-05-14T04:54:35.867Z,3924.00
2018-05-14T04:55:36.087Z,4064.00
2018-05-14T04:56:36.295Z,4268.00
2018-05-14T04:57:36.524Z,4404.00
2018-05-14T04:58:36.720Z,4456.00
2018-05-14T04:59:38.897Z,4428.00
2018-05-14T05:00:37.113Z,4440.00
2018-05-14T05:01:38.902Z,4560.00
2018-05-14T05:02:37.482Z,4700.00
2018-05-14T05:03:37.711Z,4764.00
2018-05-14T05:04:37.910Z,4804.00
2018-05-14T05:05:38.136Z,4872.00
2018-05-14T05:06:38.363Z,5004.00
2018-05-14T05:07:40.403Z,5164.00
2018-05-14T05:08:38.755Z,5336.00
2018-05-14T05:09:38.975Z,5276.00
2018-05-14T05:10:39.196Z,5224.00
2018-05-14T05:11:39.418Z,5364.00
2018-05-14T05:12:39.633Z,5464.00
2018-05-14T05:13:39.846Z,5556.00
2018-05-14T05:14:40.067Z,5780.00
2018-05-14T05:15:40.273Z,6056.00
2018-05-14T05:16:40.495Z,6424.00
2018-05-14T05:17:40.701Z,6528.00
2018-05-14T05:18:40.920Z,6476.00
2018-05-14T05:19:41.133Z,6924.00
2018-05-14T05:20:41.339Z,7704.00
2018-05-14T05:21:41.560Z,7888.00
2018-05-14T05:22:41.792Z,7972.00
2018-05-14T05:23:43.896Z,8132.00
2018-05-14T05:24:42.241Z,8092.00
2018-05-14T05:25:44.415Z,8504.00
2018-05-14T05:26:44.402Z,8776.00
2018-05-14T05:27:42.740Z,9032.00
2018-05-14T05:28:44.907Z,9192.00
2018-05-14T05:29:43.118Z,9344.00
2018-05-14T05:30:43.337Z,9452.00
2018-05-14T05:31:43.553Z,9684.00
2018-05-14T05:32:43.768Z,9964.00
2018-05-14T05:33:43.983Z,10116.00
2018-05-14T05:34:44.190Z,10252.00
2018-05-14T05:35:45.901Z,10400.00
2018-05-14T05:36:44.624Z,10832.00
2018-05-14T05:37:44.846Z,11436.00
2018-05-14T05:38:49.644Z,11700.00
2018-05-14T05:39:45.242Z,11632.00
2018-05-14T05:40:47.398Z,11700.00
2018-05-14T05:41:45.620Z,12188.00
2018-05-14T05:42:45.833Z,12640.00
2018-05-14T05:43:47.898Z,12584.00
2018-05-14T05:44:46.246Z,12532.00
2018-05-14T05:45:46.455Z,12936.00
2018-05-14T05:46:50.405Z,13372.00
2018-05-14T05:47:46.863Z,13776.00
2018-05-14T05:48:47.070Z,14168.00
2018-05-14T05:49:47.289Z,14816.00
2018-05-14T05:50:47.513Z,15392.00
2018-05-14T05:51:47.773Z,15584.00
2018-05-14T05:52:47.954Z,15392.00
2018-05-14T05:53:49.899Z,15616.00
2018-05-14T05:54:48.368Z,15840.00
2018-05-14T05:55:48.595Z,16288.00
2018-05-14T05:56:48.808Z,16512.00
2018-05-14T05:57:50.903Z,16832.00
2018-05-14T05:58:49.259Z,16928.00
2018-05-14T05:59:49.476Z,16736.00
2018-05-14T06:00:49.699Z,17312.00
2018-05-14T06:01:49.921Z,18080.00
2018-05-14T06:02:51.852Z,18496.00
2018-05-14T06:03:50.330Z,18208.00
2018-05-14T06:04:50.547Z,12072.00
2018-05-14T06:05:50.759Z,10004.00
2018-05-14T06:06:51.015Z,9404.00
2018-05-14T06:07:52.901Z,9564.00
2018-05-14T06:08:52.920Z,9712.00
2018-05-14T06:09:51.508Z,9952.00
2018-05-14T06:10:51.741Z,10216.00
2018-05-14T06:11:51.956Z,10956.00
2018-05-14T06:12:55.904Z,13928.00
2018-05-14T06:13:52.382Z,15552.00
2018-05-14T06:14:52.602Z,11348.00
2018-05-14T06:15:52.816Z,11640.00
2018-05-14T06:16:53.039Z,12568.00
2018-05-14T06:17:53.267Z,11256.00
2018-05-14T06:18:53.481Z,11024.00
2018-05-14T06:19:55.408Z,10752.00
2018-05-14T06:20:53.864Z,10604.00
2018-05-14T06:21:54.075Z,10624.00
2018-05-14T06:22:54.304Z,10732.00
2018-05-14T06:23:54.513Z,10876.00
2018-05-14T06:24:54.733Z,11032.00
2018-05-14T06:25:54.966Z,11008.00
2018-05-14T06:26:55.170Z,11196.00
2018-05-14T06:27:55.419Z,11568.00
2018-05-14T06:28:55.616Z,10800.00
2018-05-14T06:29:55.860Z,10896.00
2018-05-14T06:30:56.061Z,10884.00
2018-05-14T06:31:56.281Z,10752.00
2018-05-14T06:32:56.498Z,10640.00
2018-05-14T06:33:56.725Z,11088.00
2018-05-14T06:34:56.949Z,10600.00
2018-05-14T06:35:57.159Z,10564.00
2018-05-14T06:36:57.417Z,10640.00
2018-05-14T06:37:59.408Z,10884.00
2018-05-14T06:38:57.750Z,11876.00
2018-05-14T06:39:59.902Z,19360.00
2018-05-14T06:41:00.917Z,13376.00
2018-05-14T06:41:58.258Z,16704.00
2018-05-14T06:42:58.479Z,25632.00
2018-05-14T06:43:58.680Z,25440.00
2018-05-14T06:44:58.901Z,25440.00
2018-05-14T06:45:59.113Z,25984.00
2018-05-14T06:46:59.336Z,27520.00
2018-05-14T06:48:02.408Z,30240.00
2018-05-14T06:48:59.749Z,33376.00
2018-05-14T06:49:59.979Z,35136.00
2018-05-14T06:51:01.908Z,34656.00
2018-05-14T06:52:00.371Z,32544.00
2018-05-14T06:53:00.595Z,30528.00
2018-05-14T06:54:00.810Z,29504.00
2018-05-14T06:55:03.966Z,30144.00
2018-05-14T06:56:02.912Z,32224.00
2018-05-14T06:57:01.398Z,35040.00
2018-05-14T06:58:04.403Z,36608.00
2018-05-14T06:59:01.755Z,36160.00
2018-05-14T07:00:01.992Z,32832.00
2018-05-14T07:01:03.920Z,30368.00
2018-05-14T07:02:03.905Z,29792.00
2018-05-14T07:03:06.458Z,31776.00
2018-05-14T07:04:04.409Z,33760.00
2018-05-14T07:05:04.412Z,34144.00
2018-05-14T07:06:04.011Z,35904.00
2018-05-14T07:07:04.246Z,34432.00
2018-05-14T07:08:03.504Z,26528.00
2018-05-14T07:09:03.685Z,17600.00
2018-05-14T07:10:03.904Z,12436.00
2018-05-14T07:11:05.983Z,13316.00
2018-05-14T07:12:04.431Z,13552.00
2018-05-14T07:13:06.914Z,13716.00
2018-05-14T07:14:04.628Z,20096.00
2018-05-14T07:15:06.408Z,26496.00
2018-05-14T07:16:05.003Z,31232.00
2018-05-14T07:17:07.913Z,35584.00
2018-05-14T07:18:06.917Z,37152.00
2018-05-14T07:19:05.533Z,38208.00
2018-05-14T07:20:05.652Z,37856.00
2018-05-14T07:21:07.421Z,31264.00
2018-05-14T07:22:06.045Z,32768.00
2018-05-14T07:23:06.279Z,26752.00
2018-05-14T07:24:08.408Z,20736.00
2018-05-14T07:25:08.414Z,15048.00
2018-05-14T07:26:09.453Z,18528.00
2018-05-14T07:27:07.010Z,21280.00
2018-05-14T07:28:08.248Z,23264.00
2018-05-14T07:29:07.354Z,25984.00
2018-05-14T07:30:09.426Z,29152.00
2018-05-14T07:31:11.429Z,27808.00
2018-05-14T07:32:07.893Z,31968.00
2018-05-14T07:33:08.126Z,31136.00
2018-05-14T07:34:09.939Z,31872.00
2018-05-14T07:35:10.415Z,31392.00
2018-05-14T07:36:12.454Z,26048.00
2018-05-14T07:37:10.410Z,27456.00
2018-05-14T07:38:10.917Z,41760.00
2018-05-14T07:39:09.163Z,46272.00
2018-05-14T07:40:09.385Z,47520.00
2018-05-14T07:41:11.450Z,49280.00
2018-05-14T07:42:16.427Z,49312.00
2018-05-14T07:43:10.142Z,48832.00
2018-05-14T07:44:13.914Z,48512.00
2018-05-14T07:45:10.387Z,48256.00
2018-05-14T07:46:10.610Z,47264.00
2018-05-14T07:47:10.827Z,46592.00
2018-05-14T07:48:12.912Z,45696.00
2018-05-14T07:49:14.910Z,44608.00
2018-05-14T07:50:15.427Z,42848.00
2018-05-14T07:51:11.651Z,41440.00
2018-05-14T07:52:14.435Z,40512.00
2018-05-14T07:53:16.355Z,40928.00
2018-05-14T07:54:14.915Z,44064.00
2018-05-14T07:55:15.938Z,48384.00
2018-05-14T07:56:13.577Z,50624.00
2018-05-14T07:57:14.448Z,49952.00
2018-05-14T07:58:15.915Z,48512.00
2018-05-14T07:59:14.917Z,45056.00
2018-05-14T08:00:13.339Z,40928.00
2018-05-14T08:01:14.918Z,39424.00
2018-05-14T08:02:18.385Z,40288.00
2018-05-14T08:03:15.462Z,44416.00
2018-05-14T08:04:13.988Z,48192.00
2018-05-14T08:05:14.131Z,48672.00
2018-05-14T08:06:16.444Z,46336.00
2018-05-14T08:07:14.481Z,43648.00
2018-05-14T08:08:16.452Z,42976.00
2018-05-14T08:09:16.419Z,43936.00
2018-05-14T08:10:15.211Z,47488.00
2018-05-14T08:11:16.921Z,52832.00
2018-05-14T08:12:19.410Z,55776.00
2018-05-14T08:13:17.448Z,56032.00
2018-05-14T08:14:19.422Z,57152.00
2018-05-14T08:15:17.918Z,54080.00
2018-05-14T08:16:16.274Z,51648.00
2018-05-14T08:17:16.512Z,50336.00
2018-05-14T08:18:18.416Z,52320.00
2018-05-14T08:19:20.438Z,55520.00
2018-05-14T08:20:18.918Z,57344.00
2018-05-14T08:21:18.914Z,57888.00
2018-05-14T08:22:18.493Z,55808.00
2018-05-14T08:23:19.467Z,52224.00
2018-05-14T08:24:18.840Z,49248.00
2018-05-14T08:25:19.914Z,48032.00
2018-05-14T08:26:19.277Z,48288.00
2018-05-14T08:27:18.499Z,50016.00
2018-05-14T08:28:24.757Z,51936.00
2018-05-14T08:29:27.373Z,52960.00
2018-05-14T08:30:20.367Z,53184.00
2018-05-14T08:31:25.933Z,52320.00
2018-05-14T08:32:22.367Z,50560.00
2018-05-14T08:33:22.264Z,49088.00
2018-05-14T08:34:19.769Z,48928.00
2018-05-14T08:35:36.399Z,51200.00
2018-05-14T08:36:20.545Z,53792.00
2018-05-14T08:37:22.897Z,56480.00
2018-05-14T08:38:24.488Z,58432.00
2018-05-14T08:39:21.433Z,56992.00
2018-05-14T08:40:22.426Z,53408.00
2018-05-14T08:41:21.152Z,50720.00
2018-05-14T08:42:22.997Z,48032.00
2018-05-14T08:43:22.703Z,48672.00
2018-05-14T08:44:21.831Z,51584.00
2018-05-14T08:45:23.925Z,55520.00
2018-05-14T08:46:22.284Z,59392.00
2018-05-14T08:47:26.415Z,60128.00
2018-05-14T08:48:22.649Z,57920.00
2018-05-14T08:49:22.893Z,55040.00
2018-05-14T08:50:25.916Z,52352.00
2018-05-14T08:51:23.264Z,50048.00
2018-05-14T08:52:27.419Z,53440.00
2018-05-14T08:53:23.649Z,58304.00
2018-05-14T08:54:31.522Z,61216.00
2018-05-14T08:55:24.070Z,61728.00
2018-05-14T08:56:25.194Z,60640.00
2018-05-14T08:57:25.923Z,58400.00
2018-05-14T08:58:26.421Z,55776.00
2018-05-14T08:59:26.445Z,55968.00
2018-05-14T09:00:25.034Z,58176.00
2018-05-14T09:01:26.964Z,61056.00
2018-05-14T09:02:26.491Z,62912.00
2018-05-14T09:03:33.417Z,63232.00
2018-05-14T09:04:28.432Z,60640.00
2018-05-14T09:05:26.035Z,56704.00
2018-05-14T09:06:26.264Z,52448.00
2018-05-14T09:07:27.492Z,51040.00
2018-05-14T09:08:30.615Z,53824.00
2018-05-14T09:09:30.989Z,58112.00
2018-05-14T09:10:27.204Z,62336.00
2018-05-14T09:11:27.444Z,64608.00
2018-05-14T09:12:35.454Z,64832.00
2018-05-14T09:13:28.439Z,64064.00
2018-05-14T09:14:28.038Z,61728.00
2018-05-14T09:15:31.926Z,60064.00
2018-05-14T09:16:30.872Z,59008.00
2018-05-14T09:17:28.568Z,58784.00
2018-05-14T09:18:30.425Z,59168.00
2018-05-14T09:19:30.444Z,59648.00
2018-05-14T09:20:29.153Z,60256.00
2018-05-14T09:21:30.427Z,60192.00
2018-05-14T09:22:31.430Z,60576.00
2018-05-14T09:23:38.905Z,61696.00
2018-05-14T09:24:32.140Z,62560.00
2018-05-14T09:25:31.956Z,61888.00
2018-05-14T09:26:31.920Z,59360.00
2018-05-14T09:27:30.658Z,56896.00
2018-05-14T09:28:32.429Z,55680.00
2018-05-14T09:29:31.036Z,55840.00
2018-05-14T09:30:31.266Z,58112.00
2018-05-14T09:31:35.418Z,62176.00
2018-05-14T09:32:31.636Z,65152.00
2018-05-14T09:33:32.866Z,64672.00
2018-05-14T09:34:32.088Z,61120.00
2018-05-14T09:35:32.421Z,56192.00
2018-05-14T09:36:34.443Z,52960.00
2018-05-14T09:37:32.642Z,52096.00
2018-05-14T09:38:34.449Z,54752.00
2018-05-14T09:39:33.574Z,60864.00
2018-05-14T09:40:34.929Z,66304.00
2018-05-14T09:41:37.685Z,69184.00
2018-05-14T09:42:35.380Z,67872.00
2018-05-14T09:43:33.872Z,63168.00
2018-05-14T09:44:35.996Z,56704.00
2018-05-14T09:45:34.320Z,52768.00
2018-05-14T09:46:37.421Z,53472.00
2018-05-14T09:47:38.419Z,57120.00
2018-05-14T09:48:37.220Z,60896.00
2018-05-14T09:49:36.375Z,63936.00
2018-05-14T09:50:36.920Z,63264.00
2018-05-14T09:51:37.468Z,58688.00
2018-05-14T09:52:38.379Z,54752.00
2018-05-14T09:53:38.412Z,51968.00
2018-05-14T09:54:36.443Z,52928.00
2018-05-14T09:55:36.368Z,56960.00
2018-05-14T09:56:38.914Z,60864.00
2018-05-14T09:57:41.395Z,64256.00
2018-05-14T09:58:38.427Z,64512.00
2018-05-14T09:59:37.024Z,61632.00
2018-05-14T10:00:38.961Z,57312.00
2018-05-14T10:01:38.920Z,53760.00
2018-05-14T10:02:37.558Z,53664.00
2018-05-14T10:03:38.698Z,55360.00
2018-05-14T10:04:41.440Z,58016.00
2018-05-14T10:05:41.161Z,60320.00
2018-05-14T10:06:41.928Z,61152.00
2018-05-14T10:07:41.374Z,59488.00
2018-05-14T10:08:39.384Z,56928.00
2018-05-14T10:09:38.803Z,55680.00
2018-05-14T10:10:40.424Z,56704.00
2018-05-14T10:11:39.139Z,58432.00
2018-05-14T10:12:41.923Z,59584.00
2018-05-14T10:13:39.569Z,58976.00
2018-05-14T10:14:41.443Z,57216.00
2018-05-14T10:15:39.926Z,55200.00
2018-05-14T10:16:41.940Z,53536.00
2018-05-14T10:17:40.801Z,54272.00
2018-05-14T10:18:42.447Z,56576.00
2018-05-14T10:19:44.807Z,60128.00
2018-05-14T10:20:51.448Z,63264.00
2018-05-14T10:21:44.949Z,64544.00
2018-05-14T10:22:41.284Z,63200.00
2018-05-14T10:23:41.562Z,60640.00
2018-05-14T10:24:41.703Z,56352.00
2018-05-14T10:25:44.885Z,52256.00
2018-05-14T10:26:45.033Z,49984.00
2018-05-14T10:27:42.119Z,50208.00
2018-05-14T10:28:42.348Z,52256.00
2018-05-14T10:29:42.590Z,55488.00
2018-05-14T10:30:43.900Z,58400.00
2018-05-14T10:31:46.435Z,59552.00
2018-05-14T10:32:45.934Z,57984.00
2018-05-14T10:33:43.171Z,56448.00
2018-05-14T10:34:44.919Z,57024.00
2018-05-14T10:35:43.658Z,57056.00
2018-05-14T10:37:04.898Z,56416.00
2018-05-14T10:37:45.390Z,55680.00
2018-05-14T10:38:45.925Z,53632.00
2018-05-14T10:39:45.933Z,53152.00
2018-05-14T10:40:44.574Z,53632.00
2018-05-14T10:41:47.421Z,55936.00
2018-05-14T10:42:44.900Z,57888.00
2018-05-14T10:43:48.922Z,60768.00
2018-05-14T10:44:45.303Z,62464.00
2018-05-14T10:45:45.561Z,61888.00
2018-05-14T10:46:45.729Z,59936.00
2018-05-14T10:47:49.431Z,57984.00
2018-05-14T10:48:49.960Z,56384.00
2018-05-14T10:49:47.949Z,54912.00
2018-05-14T10:50:47.948Z,54592.00
2018-05-14T10:51:46.543Z,56768.00
2018-05-14T10:52:49.527Z,57952.00
2018-05-14T10:53:55.916Z,57696.00
2018-05-14T10:54:47.177Z,55936.00
2018-05-14T10:55:48.744Z,52608.00
2018-05-14T10:56:48.519Z,50016.00
2018-05-14T10:57:49.478Z,49152.00
2018-05-14T10:58:49.385Z,50528.00
2018-05-14T10:59:49.923Z,53056.00
2018-05-14T11:00:51.150Z,55616.00
2018-05-14T11:01:49.926Z,57344.00
2018-05-14T11:02:50.841Z,58176.00
2018-05-14T11:03:51.473Z,59168.00
2018-05-14T11:04:49.909Z,58048.00
2018-05-14T11:05:51.010Z,55328.00
2018-05-14T11:06:49.238Z,51488.00
2018-05-14T11:07:57.428Z,48096.00
2018-05-14T11:08:49.892Z,46368.00
2018-05-14T11:09:52.877Z,46368.00
2018-05-14T11:10:51.924Z,46912.00
2018-05-14T11:12:05.926Z,49824.00
2018-05-14T11:12:52.881Z,52480.00
2018-05-14T11:13:53.423Z,55456.00
2018-05-14T11:14:54.441Z,58720.00
2018-05-14T11:15:54.967Z,58016.00
2018-05-14T11:16:51.889Z,43072.00
2018-05-14T11:17:52.940Z,29344.00
2018-05-14T11:18:55.467Z,12028.00
2018-05-14T11:19:51.708Z,11524.00
2018-05-14T11:20:53.431Z,11524.00
2018-05-14T11:21:54.884Z,11560.00
2018-05-14T11:22:53.928Z,11628.00
2018-05-14T11:23:56.425Z,11688.00
2018-05-14T11:24:56.431Z,11708.00
2018-05-14T11:25:54.930Z,11704.00
2018-05-14T11:26:53.160Z,11708.00
2018-05-14T11:27:55.382Z,11732.00
2018-05-14T11:28:55.454Z,11724.00
2018-05-14T11:30:09.442Z,11708.00
2018-05-14T11:30:57.922Z,11580.00
2018-05-14T11:31:54.160Z,11524.00
2018-05-14T11:32:54.386Z,11456.00
2018-05-14T11:33:57.433Z,11428.00
2018-05-14T11:34:56.426Z,11420.00
2018-05-14T11:36:02.930Z,11464.00
2018-05-14T11:36:55.274Z,11488.00
2018-05-14T11:37:57.436Z,11544.00
2018-05-14T11:39:03.444Z,11544.00
2018-05-14T11:39:56.895Z,11552.00
2018-05-14T11:40:57.938Z,11648.00
2018-05-14T11:41:56.307Z,11708.00
2018-05-14T11:42:57.932Z,12044.00
2018-05-14T11:43:56.650Z,12064.00
2018-05-14T11:44:58.437Z,12072.00
2018-05-14T11:46:00.929Z,12116.00
2018-05-14T11:46:57.276Z,13244.00
2018-05-14T11:47:57.511Z,19776.00
2018-05-14T11:49:05.457Z,38432.00
2018-05-14T11:49:57.890Z,45312.00
2018-05-14T11:50:59.934Z,44544.00
2018-05-14T11:52:01.932Z,45632.00
2018-05-14T11:52:59.935Z,44160.00
2018-05-14T11:53:58.545Z,43520.00
2018-05-14T11:55:00.467Z,39264.00
2018-05-14T11:56:00.938Z,32864.00
2018-05-14T11:57:00.942Z,30080.00
2018-05-14T11:58:00.454Z,16860.00
2018-05-14T11:59:00.385Z,12152.00
2018-05-14T12:00:01.448Z,11812.00
2018-05-14T12:01:02.942Z,12088.00
2018-05-14T12:02:03.930Z,11924.00
2018-05-14T12:03:02.431Z,11908.00
2018-05-14T12:04:02.430Z,11788.00
2018-05-14T12:05:00.780Z,12696.00
2018-05-14T12:06:01.014Z,16272.00
2018-05-14T12:07:02.228Z,21088.00
2018-05-14T12:08:25.443Z,24960.00
2018-05-14T12:09:05.436Z,27328.00
2018-05-14T12:10:09.545Z,28736.00
2018-05-14T12:11:01.956Z,31872.00
2018-05-14T12:12:03.205Z,29536.00
2018-05-14T12:13:04.929Z,22176.00
2018-05-14T12:14:04.459Z,17568.00
2018-05-14T12:15:04.450Z,12940.00